createdAt,value
2022-08-30T00:04:39.596Z,86.30
2022-08-30T00:09:43.843Z,86.42
2022-08-30T00:14:51.606Z,87.75
2022-08-30T00:19:57.320Z,87.62
2022-08-30T00:25:01.453Z,87.71
2022-08-30T00:30:10.747Z,88.01
2022-08-30T00:35:21.526Z,87.59
2022-08-30T00:40:27.695Z,87.96
2022-08-30T00:45:39.401Z,88.81
2022-08-30T00:50:56.300Z,89.07
2022-08-30T00:56:01.878Z,89.57
2022-08-30T01:01:12.968Z,90.13
2022-08-30T01:06:19.657Z,90.38
2022-08-30T01:11:26.298Z,91.07
2022-08-30T01:16:34.538Z,91.54
2022-08-30T01:21:47.462Z,92.11
2022-08-30T01:26:56.083Z,91.96
2022-08-30T01:31:59.665Z,92.09
2022-08-30T01:37:04.202Z,91.89
2022-08-30T01:42:10.383Z,92.27
2022-08-30T01:47:15.230Z,92.53
2022-08-30T01:52:20.105Z,92.49
2022-08-30T01:57:27.591Z,92.82
2022-08-30T02:02:35.720Z,92.74
2022-08-30T02:07:41.461Z,92.99
2022-08-30T02:12:47.656Z,93.20
2022-08-30T02:17:54.482Z,93.76
2022-08-30T02:23:01.227Z,94.05
2022-08-30T02:28:07.442Z,94.30
2022-08-30T02:33:12.427Z,94.15
2022-08-30T02:38:18.946Z,94.87
2022-08-30T02:43:25.407Z,95.32
2022-08-30T02:48:29.293Z,95.58
2022-08-30T02:53:36.907Z,95.50
2022-08-30T02:58:43.178Z,95.77
2022-08-30T03:03:48.023Z,95.73
2022-08-30T03:08:52.221Z,95.69
2022-08-30T03:13:59.713Z,96.11
2022-08-30T03:19:02.814Z,96.09
2022-08-30T03:24:08.687Z,96.76
2022-08-30T03:29:13.597Z,96.85
2022-08-30T03:34:20.124Z,96.39
2022-08-30T03:39:26.882Z,97.02
2022-08-30T03:44:32.926Z,97.76
2022-08-30T03:49:38.845Z,97.99
2022-08-30T03:54:42.245Z,98.10
2022-08-30T03:59:48.621Z,98.61
2022-08-30T04:04:59.616Z,98.71
2022-08-30T04:10:05.075Z,99.43
2022-08-30T04:15:12.787Z,100.00
2022-08-30T04:20:16.824Z,100.00
2022-08-30T04:25:20.759Z,100.00
2022-08-30T04:30:25.857Z,100.00
2022-08-30T04:35:30.115Z,100.00
2022-08-30T04:40:37.435Z,100.00
2022-08-30T04:45:44.919Z,100.00
2022-08-30T04:50:51.364Z,100.00
2022-08-30T04:55:57.674Z,100.00
2022-08-30T05:01:03.393Z,100.00
2022-08-30T05:06:12.235Z,100.00
2022-08-30T05:11:17.436Z,100.00
2022-08-30T05:16:25.143Z,100.00
2022-08-30T05:21:30.123Z,100.00
2022-08-30T05:26:35.577Z,100.00
2022-08-30T05:31:42.699Z,100.00
2022-08-30T05:36:47.677Z,100.00
2022-08-30T05:41:54.416Z,100.00
2022-08-30T05:47:03.359Z,100.00
2022-08-30T05:52:08.571Z,99.91
2022-08-30T05:57:15.522Z,98.00
2022-08-30T06:02:23.746Z,94.13
2022-08-30T06:07:31.670Z,90.55
2022-08-30T06:12:36.492Z,75.62
2022-08-30T06:17:43.899Z,65.21
2022-08-30T06:22:51.529Z,59.42
2022-08-30T06:27:56.622Z,55.44
2022-08-30T06:33:02.212Z,55.16
2022-08-30T06:38:06.134Z,50.33
2022-08-30T06:43:09.677Z,48.60
2022-08-30T06:48:16.858Z,47.31
2022-08-30T06:53:22.748Z,47.19
2022-08-30T06:58:28.678Z,48.44
2022-08-30T07:03:36.641Z,46.12
2022-08-30T07:08:41.186Z,44.06
2022-08-30T07:13:45.808Z,46.53
2022-08-30T07:18:55.160Z,48.58
2022-08-30T07:24:00.113Z,48.32
2022-08-30T07:29:04.628Z,48.99
2022-08-30T07:34:11.076Z,50.47
2022-08-30T07:39:14.248Z,49.98
2022-08-30T07:44:18.181Z,52.09
2022-08-30T07:49:24.067Z,51.29
2022-08-30T07:54:27.748Z,51.31
2022-08-30T07:59:36.071Z,52.72
2022-08-30T08:04:42.805Z,53.61
2022-08-30T08:09:48.275Z,52.78
2022-08-30T08:14:52.846Z,53.96
2022-08-30T08:19:59.324Z,54.27
2022-08-30T08:25:03.763Z,55.17
2022-08-30T08:30:09.352Z,56.01
2022-08-30T08:35:15.503Z,55.61
2022-08-30T08:40:22.334Z,55.80
2022-08-30T08:45:37.816Z,55.97
2022-08-30T08:51:04.156Z,56.34
2022-08-30T08:56:13.572Z,56.26
2022-08-30T09:01:20.119Z,56.14
2022-08-30T09:06:47.241Z,56.22
2022-08-30T09:11:50.637Z,56.37
2022-08-30T09:17:02.574Z,57.38
2022-08-30T09:22:17.887Z,55.32
2022-08-30T09:27:26.180Z,54.66
2022-08-30T09:32:33.731Z,55.08
2022-08-30T09:37:50.105Z,55.92
2022-08-30T09:43:09.763Z,57.76
2022-08-30T09:48:31.444Z,56.16
2022-08-30T09:53:40.693Z,58.95
2022-08-30T09:59:03.792Z,58.09
2022-08-30T10:04:16.616Z,58.26
2022-08-30T10:09:33.597Z,58.88
2022-08-30T10:15:05.588Z,57.80
2022-08-30T10:20:19.143Z,58.63
2022-08-30T10:25:29.804Z,57.45
2022-08-30T10:30:40.249Z,55.44
2022-08-30T10:35:47.837Z,56.70
2022-08-30T10:41:14.675Z,55.70
2022-08-30T10:46:24.930Z,55.26
2022-08-30T10:51:33.591Z,54.40
2022-08-30T10:56:44.556Z,53.36
2022-08-30T11:02:11.675Z,54.15
2022-08-30T11:07:30.833Z,53.68
2022-08-30T11:12:39.415Z,53.22
2022-08-30T11:17:54.612Z,52.85
2022-08-30T11:23:32.646Z,52.41
2022-08-30T11:29:07.640Z,53.51
2022-08-30T11:34:12.632Z,51.05
2022-08-30T11:39:45.132Z,50.87
2022-08-30T11:44:49.691Z,52.23
2022-08-30T11:50:12.227Z,51.25
2022-08-30T11:55:34.564Z,51.97
2022-08-30T12:00:50.731Z,51.76
2022-08-30T12:06:00.124Z,51.63
2022-08-30T12:11:06.809Z,50.94
2022-08-30T12:16:14.897Z,52.54
2022-08-30T12:21:31.177Z,53.96
2022-08-30T12:26:43.466Z,55.03
2022-08-30T12:31:52.912Z,55.72
2022-08-30T12:37:00.625Z,54.60
2022-08-30T12:42:18.120Z,54.06
2022-08-30T12:47:29.291Z,54.53
2022-08-30T12:52:37.927Z,54.42
2022-08-30T12:57:44.811Z,55.22
2022-08-30T13:02:54.637Z,55.89
2022-08-30T13:08:11.595Z,56.86
2022-08-30T13:13:33.458Z,57.05
2022-08-30T13:18:38.706Z,58.20
2022-08-30T13:23:42.276Z,57.50
2022-08-30T13:28:48.860Z,57.26
2022-08-30T13:33:55.539Z,57.08
2022-08-30T13:39:00.853Z,56.86
2022-08-30T13:44:13.933Z,57.68
2022-08-30T13:54:47.952Z,56.15
2022-08-30T13:59:53.981Z,55.17
2022-08-30T14:05:03.476Z,54.89
2022-08-30T14:15:33.085Z,54.65
2022-08-30T14:20:38.590Z,54.56
2022-08-30T14:25:43.117Z,54.42
2022-08-30T14:30:46.927Z,54.00
2022-08-30T14:35:55.783Z,52.63
2022-08-30T14:41:00.858Z,53.90
2022-08-30T14:46:04.850Z,53.65
2022-08-30T14:51:15.645Z,53.66
2022-08-30T14:56:21.282Z,53.93
2022-08-30T15:01:25.250Z,54.78
2022-08-30T15:06:29.965Z,54.91
2022-08-30T15:11:33.360Z,56.10
2022-08-30T15:16:39.273Z,56.02
2022-08-30T15:21:48.991Z,56.23
2022-08-30T15:26:53.461Z,55.99
2022-08-30T15:31:57.195Z,55.87
2022-08-30T15:37:02.978Z,54.89
2022-08-30T15:42:07.258Z,55.87
2022-08-30T15:47:10.852Z,55.73
2022-08-30T15:52:15.683Z,55.47
2022-08-30T15:57:19.297Z,54.43
2022-08-30T16:02:27.526Z,54.72
2022-08-30T16:07:37.405Z,54.22
2022-08-30T16:12:43.947Z,54.37
2022-08-30T16:17:47.398Z,54.33
2022-08-30T16:22:52.885Z,55.04
2022-08-30T16:27:56.284Z,54.13
2022-08-30T16:33:00.047Z,54.78
2022-08-30T16:38:04.633Z,54.72
2022-08-30T16:43:09.261Z,54.44
2022-08-30T16:48:16.952Z,54.47
2022-08-30T16:53:24.043Z,54.94
2022-08-30T16:58:28.899Z,55.85
2022-08-30T17:03:32.412Z,55.61
2022-08-30T17:08:38.798Z,55.33
2022-08-30T17:13:45.034Z,56.46
2022-08-30T17:18:51.379Z,56.80
2022-08-30T17:24:01.893Z,56.73
2022-08-30T17:29:07.800Z,57.41
2022-08-30T17:34:13.715Z,56.18
2022-08-30T17:39:19.178Z,56.37
2022-08-30T17:44:27.212Z,56.21
2022-08-30T17:49:33.890Z,56.17
2022-08-30T17:54:39.129Z,55.96
2022-08-30T17:59:43.982Z,57.13
2022-08-30T18:04:48.040Z,56.58
2022-08-30T18:09:54.584Z,57.25
2022-08-30T18:14:58.237Z,57.31
2022-08-30T18:20:02.553Z,58.11
2022-08-30T18:25:09.981Z,58.98
2022-08-30T18:30:14.320Z,59.51
2022-08-30T18:35:18.152Z,60.08
2022-08-30T18:40:22.942Z,60.89
2022-08-30T18:45:26.884Z,61.96
2022-08-30T18:50:31.639Z,62.30
2022-08-30T18:55:37.444Z,63.43
2022-08-30T19:00:41.046Z,64.02
2022-08-30T19:05:45.023Z,64.38
2022-08-30T19:10:50.524Z,65.00
2022-08-30T19:15:57.420Z,65.56
2022-08-30T19:21:01.887Z,66.55
2022-08-30T19:26:07.462Z,67.46
2022-08-30T19:31:14.269Z,67.71
2022-08-30T19:36:17.854Z,68.10
2022-08-30T19:41:22.888Z,68.88
2022-08-30T19:46:28.607Z,69.40
2022-08-30T19:51:33.666Z,69.72
2022-08-30T19:56:38.940Z,70.82
2022-08-30T20:01:42.745Z,71.32
2022-08-30T20:06:49.155Z,71.55
2022-08-30T20:11:55.300Z,71.91
2022-08-30T20:22:26.715Z,72.94
2022-08-30T20:27:32.762Z,73.25
2022-08-30T20:32:42.601Z,74.66
2022-08-30T20:37:47.156Z,75.38
2022-08-30T20:42:52.891Z,76.32
2022-08-30T20:47:56.713Z,76.86
2022-08-30T20:53:00.054Z,77.54
2022-08-30T20:58:04.782Z,78.49
2022-08-30T21:03:11.418Z,79.37
2022-08-30T21:08:29.234Z,79.87
2022-08-30T21:13:34.616Z,80.91
2022-08-30T21:18:39.349Z,81.42
2022-08-30T21:23:43.343Z,82.11
2022-08-30T21:28:49.674Z,82.11
2022-08-30T21:33:54.889Z,82.49
2022-08-30T21:39:00.736Z,82.96
2022-08-30T21:44:08.880Z,83.17
2022-08-30T21:49:13.977Z,83.58
2022-08-30T21:54:18.679Z,83.85
2022-08-30T21:59:23.688Z,84.24
2022-08-30T22:04:29.745Z,84.91
2022-08-30T22:09:33.295Z,85.19
2022-08-30T22:14:38.619Z,85.45
2022-08-30T22:19:43.156Z,86.03
2022-08-30T22:24:46.510Z,86.58
2022-08-30T22:29:53.939Z,86.76
2022-08-30T22:34:58.901Z,86.78
2022-08-30T22:40:02.658Z,87.17
2022-08-30T22:45:09.825Z,88.16
2022-08-30T22:50:14.484Z,87.94
2022-08-30T22:55:18.054Z,88.35
2022-08-30T23:00:23.921Z,89.05
2022-08-30T23:05:28.914Z,88.87
2022-08-30T23:10:33.571Z,90.12
2022-08-30T23:15:38.657Z,90.13
2022-08-30T23:20:43.054Z,90.43
2022-08-30T23:26:03.786Z,90.89
2022-08-30T23:31:31.167Z,91.52
2022-08-30T23:36:51.971Z,91.25
2022-08-30T23:42:13.497Z,92.02
2022-08-30T23:47:36.177Z,92.42
2022-08-30T23:52:56.626Z,92.31
2022-08-30T23:58:20.748Z,92.38
